Time;durP1;ratioP1;P1;durP2;ratioP2;P2;SDS_P1;SDS_P2;PMS_P1;PMS_P2;Temp;Humidity;BMP_temperature;BMP_pressure;BME280_temperature;BME280_humidity;BME280_pressure;Samples;Min_cycle;Max_cycle;Signal;HPM_P1;HPM_P2
2023/11/13 00:02:22;;;;;;;9.75;6.30;;;;;;;5.17;100.00;97170.81;1224891;75;2909863;-63
2023/11/13 00:04:54;;;;;;;7.00;5.60;;;;;;;5.34;100.00;97160.44;1225690;75;2916735;-63
2023/11/13 00:07:27;;;;;;;7.75;6.00;;;;;;;5.38;100.00;97173.84;1226197;75;2849575;-65
2023/11/13 00:10:00;;;;;;;6.40;5.25;;;;;;;5.43;100.00;97171.28;1224992;75;2928671;-64
2023/11/13 00:12:33;;;;;;;7.70;5.60;;;;;;;5.24;100.00;97167.03;1224507;75;2919777;-65
2023/11/13 00:15:10;;;;;;;6.10;4.80;;;;;;;5.39;100.00;97178.81;1224699;75;2920641;-66
2023/11/13 00:17:42;;;;;;;10.00;6.70;;;;;;;4.79;100.00;97174.69;1224165;75;2915021;-60
2023/11/13 00:20:15;;;;;;;8.90;6.85;;;;;;;4.98;100.00;97193.69;1224417;75;2910956;-64
2023/11/13 00:22:48;;;;;;;7.80;5.60;;;;;;;5.20;100.00;97190.88;1224897;75;2910418;-63
2023/11/13 00:25:21;;;;;;;7.05;6.00;;;;;;;5.04;100.00;97200.78;1224389;75;2922405;-65
2023/11/13 00:27:53;;;;;;;8.60;5.75;;;;;;;5.05;100.00;97190.69;1224240;75;2930714;-62
2023/11/13 00:30:28;;;;;;;9.70;6.70;;;;;;;4.98;100.00;97196.41;1224714;75;2924708;-65
2023/11/13 00:33:01;;;;;;;9.00;7.40;;;;;;;4.63;100.00;97191.19;1223712;75;2914319;-65
2023/11/13 00:35:34;;;;;;;12.55;8.35;;;;;;;4.62;100.00;97205.97;1224768;75;2920866;-62
2023/11/13 00:38:06;;;;;;;11.10;8.95;;;;;;;4.56;100.00;97208.47;1224071;75;2918428;-63
2023/11/13 00:40:39;;;;;;;16.15;10.45;;;;;;;4.35;100.00;97218.16;1225048;75;2917803;-65
2023/11/13 00:43:12;;;;;;;12.80;9.45;;;;;;;4.58;100.00;97229.72;1224541;75;2927295;-64
2023/11/13 00:45:48;;;;;;;10.95;8.65;;;;;;;4.86;100.00;97222.47;1225977;75;2913280;-64
2023/11/13 00:48:21;;;;;;;9.55;8.15;;;;;;;4.87;100.00;97224.72;1224705;75;2911151;-65
2023/11/13 00:50:53;;;;;;;8.40;6.55;;;;;;;4.98;100.00;97242.50;1224079;75;2910581;-63
2023/11/13 00:53:26;;;;;;;9.45;7.20;;;;;;;4.59;100.00;97244.78;1225016;75;2929289;-63
2023/11/13 00:55:59;;;;;;;9.75;7.30;;;;;;;4.78;100.00;97259.94;1225672;75;2914173;-63
2023/11/13 00:58:32;;;;;;;7.10;5.75;;;;;;;4.79;100.00;97261.44;1224921;75;2913345;-64
2023/11/13 01:01:10;;;;;;;6.40;5.20;;;;;;;4.87;100.00;97270.81;1224976;75;2924972;-62
2023/11/13 01:03:42;;;;;;;5.80;4.80;;;;;;;4.87;100.00;97270.81;1225266;75;2913171;-66
2023/11/13 01:06:19;;;;;;;5.90;4.75;;;;;;;4.84;100.00;97254.69;1224630;75;2908515;-63
2023/11/13 01:08:51;;;;;;;6.10;4.20;;;;;;;4.79;100.00;97245.19;1225207;75;2912342;-63
2023/11/13 01:11:24;;;;;;;4.85;3.90;;;;;;;4.89;100.00;97249.44;1224549;75;2914523;-61
2023/11/13 01:13:57;;;;;;;4.95;3.90;;;;;;;4.69;100.00;97244.41;1224480;75;2915815;-64
2023/11/13 01:16:32;;;;;;;5.90;4.60;;;;;;;4.57;100.00;97260.72;1224981;75;2925290;-63
2023/11/13 01:19:05;;;;;;;4.75;4.00;;;;;;;4.56;100.00;97262.69;1224868;75;2910224;-62
2023/11/13 01:21:38;;;;;;;8.10;4.05;;;;;;;4.39;100.00;97264.88;1224786;75;2914864;-63
2023/11/13 01:24:11;;;;;;;8.60;5.80;;;;;;;4.16;100.00;97259.91;1224403;75;2918395;-63
2023/11/13 01:26:44;;;;;;;6.40;5.00;;;;;;;4.49;100.00;97269.13;1224564;75;2918780;-65
2023/11/13 01:29:17;;;;;;;6.80;4.90;;;;;;;4.43;100.00;97270.16;1224290;75;2916635;-64
2023/11/13 01:31:52;;;;;;;5.45;4.50;;;;;;;4.38;100.00;97263.38;1224766;75;2919200;-62
2023/11/13 01:34:24;;;;;;;6.95;4.95;;;;;;;4.52;100.00;97264.78;1224548;75;2915038;-62
2023/11/13 01:36:57;;;;;;;5.60;4.40;;;;;;;4.60;100.00;97270.72;1224862;75;2916121;-66
2023/11/13 01:39:30;;;;;;;4.85;3.90;;;;;;;4.61;100.00;97267.53;1224782;75;2918777;-62
2023/11/13 01:42:03;;;;;;;4.90;3.60;;;;;;;4.64;100.00;97266.66;1223816;75;2926224;-68
2023/11/13 01:44:35;;;;;;;4.95;3.35;;;;;;;4.58;100.00;97271.16;1224932;75;2921730;-62
2023/11/13 01:47:11;;;;;;;4.20;3.45;;;;;;;4.54;100.00;97275.94;1224574;75;2913459;-63
2023/11/13 01:49:45;;;;;;;4.35;3.30;;;;;;;4.48;100.00;97258.75;1224131;75;2910882;-61
2023/11/13 01:52:17;;;;;;;3.65;3.20;;;;;;;4.46;100.00;97239.47;1225527;75;2911711;-62
2023/11/13 01:54:50;;;;;;;4.05;3.05;;;;;;;4.45;100.00;97254.22;1224926;75;2918782;-63
2023/11/13 01:57:23;;;;;;;3.10;2.70;;;;;;;4.40;100.00;97266.41;1223867;75;2921003;-67
2023/11/13 01:59:56;;;;;;;4.30;3.45;;;;;;;4.15;100.00;97266.53;1224719;75;2910362;-62
2023/11/13 02:02:32;;;;;;;3.75;3.35;;;;;;;4.22;100.00;97258.91;1224574;75;2912456;-63
2023/11/13 02:05:05;;;;;;;4.65;3.50;;;;;;;4.14;100.00;97273.91;1225143;75;2910812;-62
2023/11/13 02:07:38;;;;;;;5.50;4.25;;;;;;;3.94;100.00;97271.50;1224205;75;2920791;-62
2023/11/13 02:10:13;;;;;;;5.75;4.50;;;;;;;4.00;100.00;97267.03;1223976;75;2915422;-64
2023/11/13 02:12:46;;;;;;;4.70;3.80;;;;;;;4.10;100.00;97248.91;1225215;75;2912835;-63
2023/11/13 02:15:19;;;;;;;4.75;3.85;;;;;;;4.03;100.00;97260.72;1224909;75;2922329;-64
2023/11/13 02:18:08;;;;;;;3.80;2.80;;;;;;;4.02;100.00;97269.31;1223975;75;2912769;-65
2023/11/13 02:20:41;;;;;;;3.10;2.70;;;;;;;3.99;100.00;97275.59;1223857;75;2923050;-64
2023/11/13 02:23:20;;;;;;;3.75;3.05;;;;;;;3.94;100.00;97262.63;1224741;75;2912373;-63
2023/11/13 02:25:57;;;;;;;3.95;3.00;;;;;;;3.84;100.00;97265.25;1224239;75;2924834;-65
2023/11/13 02:28:30;;;;;;;4.55;3.90;;;;;;;3.88;100.00;97232.66;1224318;75;2914293;-65
2023/11/13 02:31:02;;;;;;;4.10;3.10;;;;;;;3.91;100.00;97242.59;1223746;75;2917541;-64
2023/11/13 02:33:36;;;;;;;4.00;3.15;;;;;;;3.82;100.00;97264.97;1224585;75;2904069;-64
2023/11/13 02:36:10;;;;;;;3.00;2.50;;;;;;;3.85;100.00;97260.63;1224706;75;2913969;-64
2023/11/13 02:38:47;;;;;;;3.45;2.80;;;;;;;3.64;100.00;97256.69;1224213;75;2915148;-63
2023/11/13 02:41:19;;;;;;;3.10;2.50;;;;;;;3.80;100.00;97272.00;1225101;75;2923416;-60
2023/11/13 02:43:52;;;;;;;2.60;2.00;;;;;;;3.79;100.00;97271.25;1224324;75;2925413;-62
2023/11/13 02:46:24;;;;;;;2.65;2.30;;;;;;;3.61;100.00;97290.81;1224661;75;2923760;-63
2023/11/13 02:48:57;;;;;;;3.95;2.70;;;;;;;3.42;100.00;97275.59;1223597;75;2948192;-65
2023/11/13 02:51:31;;;;;;;3.10;2.55;;;;;;;3.51;100.00;97285.72;1224213;75;2919981;-64
2023/11/13 02:54:07;;;;;;;3.30;2.75;;;;;;;3.33;100.00;97291.75;1224130;75;2915385;-65
2023/11/13 02:56:40;;;;;;;3.55;3.10;;;;;;;2.98;100.00;97287.03;1224440;75;2917604;-64
2023/11/13 02:59:13;;;;;;;6.35;4.65;;;;;;;2.85;100.00;97280.84;1223381;75;2919427;-63
2023/11/13 03:01:45;;;;;;;6.50;4.80;;;;;;;2.85;100.00;97270.03;1224271;75;2926437;-64
2023/11/13 03:04:18;;;;;;;4.80;4.00;;;;;;;3.14;100.00;97288.09;1224909;75;2913890;-63
2023/11/13 03:06:50;;;;;;;5.20;4.15;;;;;;;2.98;100.00;97283.53;1225231;75;2913201;-62
2023/11/13 03:09:26;;;;;;;4.45;3.30;;;;;;;3.25;100.00;97268.78;1224105;75;2916496;-63
2023/11/13 03:12:00;;;;;;;5.75;4.10;;;;;;;2.94;100.00;97266.69;1224667;75;2918111;-60
2023/11/13 03:14:32;;;;;;;7.35;5.05;;;;;;;2.95;100.00;97281.72;1224576;75;2948914;-65
2023/11/13 03:17:05;;;;;;;4.95;4.30;;;;;;;3.08;100.00;97300.63;1225110;75;2926328;-64
2023/11/13 03:19:38;;;;;;;8.65;6.05;;;;;;;2.87;100.00;97291.25;1225525;75;2915216;-64
2023/11/13 03:22:11;;;;;;;6.15;5.00;;;;;;;2.95;100.00;97292.53;1224857;75;2920131;-61
2023/11/13 03:24:47;;;;;;;6.85;4.95;;;;;;;2.84;100.00;97273.16;1223651;75;2919504;-62
2023/11/13 03:27:19;;;;;;;5.15;4.30;;;;;;;2.99;100.00;97291.22;1224357;75;2920729;-63
2023/11/13 03:29:52;;;;;;;5.35;3.50;;;;;;;3.12;100.00;97290.47;1223973;75;2917392;-62
2023/11/13 03:32:24;;;;;;;3.90;3.50;;;;;;;2.96;100.00;97289.41;1223235;75;2920869;-66
2023/11/13 03:34:57;;;;;;;3.45;3.00;;;;;;;3.02;100.00;97296.97;1225109;75;2912002;-64
2023/11/13 03:37:30;;;;;;;3.45;2.85;;;;;;;2.89;100.00;97300.44;1222979;75;2928357;-61
2023/11/13 03:40:06;;;;;;;4.15;2.90;;;;;;;2.95;100.00;97300.63;1223358;75;2913705;-64
2023/11/13 03:42:39;;;;;;;4.30;3.45;;;;;;;2.84;100.00;97306.38;1224176;75;2927363;-63
2023/11/13 03:45:13;;;;;;;3.35;2.95;;;;;;;2.94;100.00;97307.25;1224095;75;2920858;-64
2023/11/13 03:47:45;;;;;;;3.05;2.65;;;;;;;2.93;100.00;97311.88;1223793;75;2916216;-66
2023/11/13 03:50:18;;;;;;;4.90;3.15;;;;;;;2.90;100.00;97303.88;1224463;75;2916381;-63
2023/11/13 03:52:51;;;;;;;3.55;2.80;;;;;;;2.85;100.00;97324.09;1223862;75;2919282;-60
2023/11/13 03:55:26;;;;;;;3.45;2.70;;;;;;;2.75;100.00;97322.47;1223582;75;2921828;-64
2023/11/13 03:57:59;;;;;;;3.40;2.60;;;;;;;2.77;100.00;97315.44;1224166;75;2922443;-64
2023/11/13 04:00:32;;;;;;;2.55;2.20;;;;;;;2.70;100.00;97333.81;1223835;75;2914346;-63
2023/11/13 04:03:05;;;;;;;2.80;2.40;;;;;;;2.73;100.00;97328.31;1224556;75;2918997;-64
2023/11/13 04:05:37;;;;;;;2.55;2.20;;;;;;;2.69;100.00;97324.19;1223985;75;2925274;-61
2023/11/13 04:08:10;;;;;;;4.10;3.00;;;;;;;2.34;100.00;97322.09;1223945;75;2923561;-61
2023/11/13 04:10:45;;;;;;;4.00;2.95;;;;;;;2.38;100.00;97330.06;1223130;75;2927533;-65
2023/11/13 04:13:18;;;;;;;4.45;2.80;;;;;;;2.40;100.00;97325.00;1224854;75;2925748;-65
2023/11/13 04:15:51;;;;;;;2.40;2.15;;;;;;;2.46;100.00;97346.88;1223439;75;2921071;-63
2023/11/13 04:18:24;;;;;;;4.30;3.55;;;;;;;1.92;100.00;97357.16;1223954;75;2928050;-66
2023/11/13 04:20:56;;;;;;;5.15;3.70;;;;;;;2.05;100.00;97362.59;1223011;75;2927923;-65
2023/11/13 04:23:30;;;;;;;4.35;3.30;;;;;;;1.91;100.00;97360.25;1224251;75;2924832;-64
2023/11/13 04:26:05;;;;;;;3.50;3.00;;;;;;;2.12;100.00;97351.63;1223504;75;2923912;-62
2023/11/13 04:28:38;;;;;;;3.90;2.75;;;;;;;2.36;100.00;97345.97;1224419;75;2924194;-64
2023/11/13 04:31:10;;;;;;;3.35;2.45;;;;;;;2.38;100.00;97350.94;1223772;75;2920720;-62
2023/11/13 04:33:44;;;;;;;2.60;2.10;;;;;;;2.32;100.00;97351.47;1222999;75;2921434;-65
2023/11/13 04:36:16;;;;;;;2.85;2.30;;;;;;;2.32;100.00;97350.72;1223873;75;2923377;-65
2023/11/13 04:38:49;;;;;;;2.50;1.95;;;;;;;2.32;100.00;97362.25;1224696;75;2919729;-65
2023/11/13 04:41:24;;;;;;;3.70;2.10;;;;;;;2.26;100.00;97352.41;1223822;75;2924759;-63
2023/11/13 04:43:57;;;;;;;3.05;2.00;;;;;;;2.31;100.00;97338.41;1223730;75;2921330;-65
2023/11/13 04:46:30;;;;;;;2.80;2.10;;;;;;;2.30;100.00;97326.06;1224101;75;2919593;-65
2023/11/13 04:49:02;;;;;;;2.25;1.85;;;;;;;2.23;100.00;97335.09;1223779;75;2919697;-64
2023/11/13 04:51:35;;;;;;;3.20;2.40;;;;;;;2.26;100.00;97349.69;1223656;75;2924731;-64
2023/11/13 04:54:08;;;;;;;3.10;2.35;;;;;;;2.20;100.00;97346.03;1224909;75;2920192;-61
2023/11/13 04:56:45;;;;;;;2.90;2.20;;;;;;;2.21;100.00;97348.28;1223859;75;2921209;-64
2023/11/13 04:59:17;;;;;;;3.05;2.10;;;;;;;2.18;100.00;97345.69;1222828;75;2924652;-64
2023/11/13 05:01:50;;;;;;;2.60;2.00;;;;;;;2.12;100.00;97346.22;1222937;75;2921600;-65
2023/11/13 05:04:26;;;;;;;2.70;2.30;;;;;;;2.19;100.00;97341.78;1222361;75;2921532;-66
2023/11/13 05:06:59;;;;;;;2.80;2.40;;;;;;;2.18;100.00;97356.50;1223661;75;2931112;-65
2023/11/13 05:09:31;;;;;;;4.95;3.45;;;;;;;1.89;100.00;97373.41;1222920;75;2930802;-63
2023/11/13 05:12:08;;;;;;;7.35;4.90;;;;;;;2.03;100.00;97386.56;1221821;75;2919283;-62
2023/11/13 05:14:43;;;;;;;5.95;4.05;;;;;;;2.22;100.00;97390.31;1223661;75;2920396;-63
2023/11/13 05:17:16;;;;;;;8.15;6.05;;;;;;;2.10;100.00;97385.63;1223123;75;2921200;-64
2023/11/13 05:19:49;;;;;;;6.50;4.95;;;;;;;2.06;100.00;97395.75;1223042;75;2942089;-63
2023/11/13 05:22:21;;;;;;;6.55;5.35;;;;;;;2.06;100.00;97390.34;1222906;75;2921323;-66
2023/11/13 05:24:54;;;;;;;7.80;6.45;;;;;;;1.91;100.00;97385.31;1220699;75;2938363;-63
2023/11/13 05:27:30;;;;;;;15.10;8.75;;;;;;;1.88;100.00;97394.25;1222734;75;2919835;-66
2023/11/13 05:30:02;;;;;;;8.80;6.25;;;;;;;1.68;100.00;97401.69;1221894;75;2928194;-65
2023/11/13 05:32:35;;;;;;;5.80;4.65;;;;;;;1.46;100.00;97410.28;1223239;75;2933974;-65
2023/11/13 05:35:09;;;;;;;5.80;4.60;;;;;;;1.47;100.00;97409.13;1221716;75;2932204;-64
2023/11/13 05:37:42;;;;;;;5.90;3.70;;;;;;;1.66;100.00;97399.44;1222809;75;2921117;-62
2023/11/13 05:40:17;;;;;;;6.25;4.55;;;;;;;1.87;100.00;97381.19;1222938;75;2922083;-64
2023/11/13 05:42:52;;;;;;;6.70;4.50;;;;;;;1.79;100.00;97396.03;1223406;75;2935455;-62
2023/11/13 05:45:25;;;;;;;7.15;5.40;;;;;;;1.45;100.00;97397.97;1222822;75;2924287;-65
2023/11/13 05:47:58;;;;;;;9.65;6.85;;;;;;;1.55;100.00;97388.13;1222639;75;2922186;-64
2023/11/13 05:50:30;;;;;;;12.05;8.20;;;;;;;1.73;100.00;97406.56;1222509;75;2936270;-65
2023/11/13 05:53:03;;;;;;;9.25;5.65;;;;;;;1.84;100.00;97412.47;1222585;75;2893807;-63
2023/11/13 05:55:36;;;;;;;6.45;4.95;;;;;;;1.63;100.00;97427.22;1222683;75;2923838;-64
2023/11/13 05:58:12;;;;;;;6.15;4.35;;;;;;;1.86;100.00;97412.06;1222660;75;2927958;-62
2023/11/13 06:00:45;;;;;;;4.50;3.40;;;;;;;1.90;100.00;97399.22;1222577;75;2934290;-62
2023/11/13 06:03:17;;;;;;;5.65;3.65;;;;;;;1.76;100.00;97400.34;1222933;75;2922167;-63
2023/11/13 06:05:50;;;;;;;4.00;3.10;;;;;;;1.84;100.00;97396.28;1224159;75;2923957;-64
2023/11/13 06:08:23;;;;;;;5.85;3.60;;;;;;;1.83;100.00;97396.72;1223234;75;2928400;-64
2023/11/13 06:10:55;;;;;;;3.50;2.60;;;;;;;1.89;100.00;97403.88;1223361;75;2921760;-64
2023/11/13 06:13:31;;;;;;;3.70;2.80;;;;;;;1.82;100.00;97395.19;1221775;75;2926415;-61
2023/11/13 06:16:04;;;;;;;2.70;2.45;;;;;;;1.79;100.00;97402.19;1222428;75;2935880;-63
2023/11/13 06:18:50;;;;;;;3.40;2.80;;;;;;;1.79;100.00;97398.75;1223013;75;2928436;-64
2023/11/13 06:21:23;;;;;;;4.10;2.95;;;;;;;1.80;100.00;97411.03;1223259;75;2927206;-62
2023/11/13 06:23:56;;;;;;;5.55;4.05;;;;;;;1.86;100.00;97420.91;1223264;75;2926808;-63
2023/11/13 06:26:29;;;;;;;3.90;3.20;;;;;;;1.84;100.00;97422.53;1223398;75;2920694;-62
2023/11/13 06:29:04;;;;;;;4.60;3.40;;;;;;;2.03;100.00;97423.59;1222853;75;2930563;-64
2023/11/13 06:31:38;;;;;;;4.50;3.20;;;;;;;2.10;100.00;97426.13;1223029;75;2923947;-63
2023/11/13 06:34:11;;;;;;;4.15;3.10;;;;;;;2.10;100.00;97424.19;1223336;75;2927214;-62
2023/11/13 06:36:45;;;;;;;5.45;4.00;;;;;;;1.92;100.00;97430.03;1222824;75;2930910;-63
2023/11/13 06:39:18;;;;;;;6.85;4.55;;;;;;;2.17;100.00;97436.75;1222904;75;2928073;-64
2023/11/13 06:41:54;;;;;;;5.70;3.85;;;;;;;2.12;100.00;97443.41;1222911;75;2922226;-62
2023/11/13 06:44:29;;;;;;;5.20;3.75;;;;;;;2.65;100.00;97450.56;1222550;75;2918717;-62
2023/11/13 06:47:02;;;;;;;4.90;3.90;;;;;;;4.93;100.00;97460.09;1222365;75;2926677;-64
2023/11/13 06:49:38;;;;;;;5.65;3.70;;;;;;;6.89;99.82;97459.75;1221843;75;2926812;-62
2023/11/13 06:52:11;;;;;;;6.85;4.10;;;;;;;6.66;100.00;97444.81;1223425;75;2922946;-64
2023/11/13 06:54:44;;;;;;;6.20;4.20;;;;;;;8.81;85.74;97440.19;1222198;75;2921871;-64
2023/11/13 06:57:17;;;;;;;4.60;3.75;;;;;;;9.20;78.51;97442.84;1222717;75;2923062;-64
2023/11/13 06:59:55;;;;;;;5.70;4.50;;;;;;;9.84;74.24;97432.38;1222275;75;2946767;-65
2023/11/13 07:02:27;;;;;;;4.30;3.20;;;;;;;10.08;72.91;97434.94;1222671;75;2925785;-64
2023/11/13 07:05:00;;;;;;;3.10;2.60;;;;;;;8.51;78.41;97445.59;1222818;75;2920606;-62
2023/11/13 07:07:36;;;;;;;3.65;2.60;;;;;;;11.87;67.25;97437.94;1222046;75;2925973;-66
2023/11/13 07:10:12;;;;;;;2.70;2.20;;;;;;;14.20;58.16;97439.31;1219416;75;2932411;-68
2023/11/13 07:12:47;;;;;;;3.60;2.60;;;;;;;13.81;60.17;97451.16;1219914;75;2922255;-63
2023/11/13 07:15:23;;;;;;;2.70;2.30;;;;;;;12.55;61.52;97430.78;1221744;75;2925642;-65
2023/11/13 07:17:56;;;;;;;4.05;2.95;;;;;;;16.23;52.53;97440.66;1220694;75;2921867;-63
2023/11/13 07:20:28;;;;;;;3.60;2.70;;;;;;;11.70;62.30;97444.03;1221592;75;2923279;-66
2023/11/13 07:23:02;;;;;;;3.70;2.90;;;;;;;10.98;65.96;97461.38;1223146;75;2922345;-64
2023/11/13 07:25:35;;;;;;;3.80;2.65;;;;;;;11.76;63.68;97468.00;1222123;75;2918568;-63
2023/11/13 07:28:08;;;;;;;3.30;2.40;;;;;;;10.03;69.94;97467.22;1222180;75;2923373;-65
2023/11/13 07:30:43;;;;;;;4.60;3.00;;;;;;;9.65;72.19;97461.94;1222913;75;2920687;-64
2023/11/13 07:33:16;;;;;;;3.90;2.95;;;;;;;8.61;78.36;97470.06;1222993;75;2921915;-69
2023/11/13 07:35:49;;;;;;;5.35;2.95;;;;;;;7.98;84.25;97462.56;1223267;75;2925543;-64
2023/11/13 07:38:22;;;;;;;3.95;2.65;;;;;;;7.90;88.67;97455.97;1223030;75;2927829;-65
2023/11/13 07:40:55;;;;;;;3.55;2.60;;;;;;;8.00;87.85;97454.69;1221422;75;2922773;-64
2023/11/13 07:43:28;;;;;;;4.25;3.00;;;;;;;7.39;96.94;97457.53;1222405;75;2930175;-64
2023/11/13 07:46:03;;;;;;;4.25;2.90;;;;;;;7.07;100.00;97455.50;1222193;75;2925486;-62
2023/11/13 07:48:37;;;;;;;4.90;3.50;;;;;;;6.98;100.00;97461.72;1222310;75;2918728;-64
2023/11/13 07:51:11;;;;;;;4.80;3.45;;;;;;;6.82;100.00;97462.78;1220897;75;2931708;-62
2023/11/13 07:53:46;;;;;;;4.55;2.85;;;;;;;6.76;100.00;97457.22;1222093;75;2926546;-66
2023/11/13 07:56:20;;;;;;;6.85;3.00;;;;;;;6.35;100.00;97458.53;1223154;75;2927045;-65
2023/11/13 07:58:53;;;;;;;4.25;2.90;;;;;;;6.59;100.00;97464.13;1221214;75;2921559;-66
2023/11/13 08:01:28;;;;;;;3.10;2.40;;;;;;;6.85;100.00;97448.25;1221449;75;2925162;-64
2023/11/13 08:04:01;;;;;;;7.20;3.70;;;;;;;6.03;100.00;97454.41;1222250;75;2949097;-62
2023/11/13 08:06:33;;;;;;;6.90;3.00;;;;;;;6.05;100.00;97450.03;1222708;75;2920737;-65
2023/11/13 08:09:08;;;;;;;7.50;3.40;;;;;;;6.12;100.00;97451.72;1221317;75;2919274;-63
2023/11/13 08:11:40;;;;;;;8.05;4.00;;;;;;;6.17;100.00;97468.19;1222526;75;2930880;-64
2023/11/13 08:14:14;;;;;;;7.05;3.90;;;;;;;5.89;100.00;97458.44;1221733;75;2924243;-63
2023/11/13 08:16:49;;;;;;;5.55;3.90;;;;;;;5.98;100.00;97450.34;1222027;75;2926775;-63
2023/11/13 08:19:22;;;;;;;7.10;4.30;;;;;;;5.94;100.00;97455.16;1220272;75;2923289;-64
2023/11/13 08:21:54;;;;;;;5.95;4.15;;;;;;;5.92;100.00;97452.13;1222408;75;2921166;-62
2023/11/13 08:24:27;;;;;;;5.85;4.25;;;;;;;6.04;100.00;97451.25;1221836;75;2924301;-62
2023/11/13 08:26:59;;;;;;;8.75;5.75;;;;;;;5.72;100.00;97452.50;1223282;75;2937940;-66
2023/11/13 08:29:32;;;;;;;8.90;5.00;;;;;;;6.30;100.00;97454.47;1223515;75;2925908;-65
2023/11/13 08:32:09;;;;;;;6.20;5.30;;;;;;;5.89;100.00;97450.28;1223918;75;2923611;-65
2023/11/13 08:34:41;;;;;;;9.45;6.85;;;;;;;5.99;100.00;97454.59;1223675;75;2951388;-62
2023/11/13 08:37:14;;;;;;;8.30;6.10;;;;;;;6.40;100.00;97457.97;1220121;75;2993701;-64
2023/11/13 08:39:47;;;;;;;8.00;5.50;;;;;;;6.04;100.00;97466.78;1222805;75;2940904;-66
2023/11/13 08:42:21;;;;;;;12.50;7.80;;;;;;;5.89;100.00;97478.22;1222972;75;2930284;-62
2023/11/13 08:44:53;;;;;;;9.25;7.05;;;;;;;5.69;100.00;97486.00;1220228;75;2926663;-63
2023/11/13 08:47:29;;;;;;;9.75;7.10;;;;;;;5.73;100.00;97489.31;1222146;75;2922167;-65
2023/11/13 08:50:02;;;;;;;10.75;6.80;;;;;;;5.50;100.00;97493.28;1222527;75;2924817;-63
2023/11/13 08:52:38;;;;;;;13.55;7.35;;;;;;;5.54;100.00;97502.81;1221072;75;2919313;-64
2023/11/13 08:55:13;;;;;;;10.25;6.95;;;;;;;5.47;100.00;97505.78;1222203;75;2932924;-61
2023/11/13 08:57:47;;;;;;;11.85;8.25;;;;;;;5.38;100.00;97519.31;1223836;75;2920441;-62
2023/11/13 09:00:22;;;;;;;14.10;7.60;;;;;;;5.34;100.00;97516.00;1223964;75;2925337;-63
2023/11/13 09:02:59;;;;;;;12.95;8.75;;;;;;;5.16;100.00;97510.44;1223898;75;2921686;-65
2023/11/13 09:05:31;;;;;;;11.50;7.05;;;;;;;5.29;100.00;97513.81;1222297;75;2938555;-63
2023/11/13 09:08:06;;;;;;;9.35;7.20;;;;;;;5.26;100.00;97512.75;1222843;75;2934517;-65
2023/11/13 09:10:42;;;;;;;9.30;6.80;;;;;;;5.51;100.00;97535.53;1223881;75;2934402;-64
2023/11/13 09:13:15;;;;;;;6.85;5.45;;;;;;;5.74;100.00;97558.72;1224424;75;2921287;-61
2023/11/13 09:15:49;;;;;;;10.20;6.20;;;;;;;5.55;100.00;97561.34;1223800;75;2922078;-65
2023/11/13 09:18:26;;;;;;;12.85;7.55;;;;;;;5.26;100.00;97541.88;1222756;75;2930932;-68
2023/11/13 09:20:59;;;;;;;10.35;7.40;;;;;;;5.44;100.00;97543.94;1223827;75;2922452;-64
2023/11/13 09:23:32;;;;;;;10.80;7.45;;;;;;;5.54;100.00;97550.94;1224114;75;2928347;-63
2023/11/13 09:26:04;;;;;;;9.10;6.35;;;;;;;5.65;100.00;97551.31;1224053;75;2920230;-63
2023/11/13 09:28:37;;;;;;;9.20;6.55;;;;;;;5.59;100.00;97544.19;1223466;75;2923042;-64
2023/11/13 09:31:11;;;;;;;9.20;6.20;;;;;;;5.85;100.00;97542.03;1223529;75;2927085;-63
2023/11/13 09:33:47;;;;;;;8.70;6.00;;;;;;;5.95;100.00;97541.66;1223869;75;2925582;-64
2023/11/13 09:36:19;;;;;;;8.45;7.20;;;;;;;5.65;100.00;97528.81;1222585;75;2924207;-65
2023/11/13 09:38:53;;;;;;;8.20;6.75;;;;;;;5.91;100.00;97529.38;1223612;75;2924035;-66
2023/11/13 09:41:28;;;;;;;9.60;7.10;;;;;;;6.02;100.00;97532.47;1224280;75;2917070;-63
2023/11/13 09:44:01;;;;;;;9.10;6.45;;;;;;;6.54;100.00;97532.75;1224435;75;2936858;-64
2023/11/13 09:46:37;;;;;;;10.70;7.40;;;;;;;6.05;100.00;97526.13;1223596;75;2916869;-65
2023/11/13 09:49:16;;;;;;;10.55;7.85;;;;;;;5.93;100.00;97546.75;1224161;75;2923113;-64
2023/11/13 09:51:49;;;;;;;;;;;;;;;5.96;100.00;97537.75;1225043;75;2931388;-62
2023/11/13 09:54:23;;;;;;;14.10;7.60;;;;;;;6.39;100.00;97541.47;1223513;75;2920457;-62
2023/11/13 09:57:00;;;;;;;10.60;7.15;;;;;;;6.25;100.00;97520.28;1224401;75;2919681;-65
2023/11/13 09:59:36;;;;;;;10.30;6.90;;;;;;;6.72;100.00;97519.16;1223758;75;2926803;-64
2023/11/13 10:02:09;;;;;;;8.40;6.00;;;;;;;7.26;100.00;97505.97;1223919;75;2922524;-63
2023/11/13 10:04:45;;;;;;;9.85;6.15;;;;;;;7.24;100.00;97508.41;1223617;75;2923304;-63
2023/11/13 10:07:21;;;;;;;9.50;7.20;;;;;;;7.16;100.00;97513.38;1222855;75;2940921;-64
2023/11/13 10:10:07;;;;;;;8.10;6.00;;;;;;;7.57;100.00;97508.47;1223034;75;2926713;-63
2023/11/13 10:12:40;;;;;;;7.90;5.85;;;;;;;7.83;100.00;97514.28;1223473;75;2920214;-63
2023/11/13 10:15:15;;;;;;;9.40;5.85;;;;;;;7.35;100.00;97503.22;1221768;75;2944867;-64
2023/11/13 10:17:49;;;;;;;9.00;5.55;;;;;;;8.17;100.00;97503.38;1222605;75;2929814;-66
2023/11/13 10:20:25;;;;;;;7.10;4.85;;;;;;;8.28;100.00;97496.19;1222262;75;2953580;-62
2023/11/13 10:23:04;;;;;;;7.75;4.70;;;;;;;8.41;100.00;97495.22;1224217;75;2928511;-64
2023/11/13 10:25:50;;;;;;;10.10;4.85;;;;;;;8.10;100.00;97501.75;1223587;75;2923262;-62
2023/11/13 10:28:27;;;;;;;7.85;5.15;;;;;;;8.07;100.00;97497.22;1223318;75;2922798;-64
2023/11/13 10:31:01;;;;;;;9.10;5.30;;;;;;;8.65;100.00;97501.41;1223413;75;2923301;-62
2023/11/13 10:33:34;;;;;;;6.30;4.25;;;;;;;8.47;100.00;97507.78;1223903;75;2925135;-68
2023/11/13 10:36:18;;;;;;;6.20;4.35;;;;;;;8.32;99.77;97502.22;1224430;75;2919725;-63
2023/11/13 10:38:52;;;;;;;7.45;4.85;;;;;;;8.38;100.00;97494.16;1224004;75;2926131;-65
2023/11/13 10:41:29;;;;;;;8.05;4.70;;;;;;;8.42;97.98;97485.81;1223899;75;2922976;-65
2023/11/13 10:44:02;;;;;;;5.80;4.15;;;;;;;8.71;97.17;97487.91;1186425;75;6026595;-65
2023/11/13 10:46:36;;;;;;;8.10;4.75;;;;;;;8.94;96.99;97489.81;1223141;75;2946722;-61
2023/11/13 10:49:12;;;;;;;5.55;3.90;;;;;;;8.36;98.53;97493.13;1224466;75;2927326;-63
2023/11/13 10:51:51;;;;;;;6.70;4.10;;;;;;;8.55;98.57;97471.94;1222728;75;2925570;-63
2023/11/13 10:54:24;;;;;;;4.80;3.50;;;;;;;9.25;95.50;97474.22;1223783;67;2918674;-64
2023/11/13 10:56:58;;;;;;;4.60;3.60;;;;;;;8.84;94.95;97458.34;1224395;75;2919070;-65
2023/11/13 10:59:30;;;;;;;5.15;3.65;;;;;;;9.01;96.25;97447.75;1224252;75;2921264;-65
2023/11/13 11:02:05;;;;;;;6.50;4.55;;;;;;;8.76;97.50;97457.22;1223061;75;2923542;-63
2023/11/13 11:04:42;;;;;;;6.45;4.75;;;;;;;8.99;97.05;97449.44;1224242;75;2891125;-63
2023/11/13 11:07:20;;;;;;;6.30;4.60;;;;;;;9.34;94.80;97453.00;1224808;75;2924663;-62
2023/11/13 11:09:53;;;;;;;5.75;4.25;;;;;;;9.62;89.37;97446.47;1223930;75;2925601;-67
2023/11/13 11:12:28;;;;;;;6.85;4.20;;;;;;;9.68;88.77;97447.31;1224766;75;2924458;-63
2023/11/13 11:15:26;;;;;;;5.60;3.90;;;;;;;9.68;89.63;97436.38;1223820;75;2923215;-65
2023/11/13 11:18:08;;;;;;;5.00;3.80;;;;;;;10.16;85.51;97433.31;1224220;75;2921583;-64
2023/11/13 11:20:54;;;;;;;7.70;4.05;;;;;;;10.49;84.23;97432.25;1224640;75;2921771;-65
2023/11/13 11:23:37;;;;;;;5.55;3.85;;;;;;;10.85;81.19;97437.13;1224181;75;2925952;-64
2023/11/13 11:26:09;;;;;;;5.55;3.70;;;;;;;10.88;80.08;97429.91;1223649;75;2927491;-62
2023/11/13 11:28:48;;;;;;;5.20;3.55;;;;;;;11.09;78.33;97436.84;1223725;75;2939885;-64
2023/11/13 11:31:48;;;;;;;6.20;4.10;;;;;;;9.93;84.83;97432.25;1224170;75;2916682;-62
2023/11/13 11:34:28;;;;;;;6.70;3.90;;;;;;;9.88;85.66;97414.53;1223553;75;2922962;-63
2023/11/13 11:37:04;;;;;;;5.25;4.00;;;;;;;9.78;87.00;97397.50;1224275;75;2925082;-63
2023/11/13 11:39:49;;;;;;;6.45;4.35;;;;;;;9.84;88.02;97408.53;1224441;75;2927419;-66
2023/11/13 11:42:28;;;;;;;6.80;4.30;;;;;;;10.12;85.97;97414.34;1223492;75;2924422;-66
2023/11/13 11:45:02;;;;;;;;;;;;;;;9.73;88.61;97394.72;1224981;75;2923099;-66
2023/11/13 11:47:36;;;;;;;5.85;4.30;;;;;;;9.54;89.77;97381.28;1224338;75;2920130;-65
2023/11/13 11:50:15;;;;;;;6.95;3.70;;;;;;;10.07;86.65;97390.44;1220667;75;2925575;-68